Time;durP1;ratioP1;P1;durP2;ratioP2;P2;SDS_P1;SDS_P2;PMS_P1;PMS_P2;Temp;Humidity;BMP_temperature;BMP_pressure;BME280_temperature;BME280_humidity;BME280_pressure;Samples;Min_cycle;Max_cycle;Signal;HPM_P1;HPM_P2
2023/10/26 00:02:06;;;;;;;19.58;12.60;;;;;;;11.23;100.00;99029.41;5057567;28;20028;-63
2023/10/26 00:04:32;;;;;;;17.52;12.38;;;;;;;11.22;100.00;99025.13;5060888;28;20053;-63
2023/10/26 00:06:58;;;;;;;20.60;13.38;;;;;;;11.20;100.00;99024.34;5051417;28;20697;-63
2023/10/26 00:09:24;;;;;;;20.58;13.73;;;;;;;11.18;100.00;99028.75;5059567;28;20040;-64
2023/10/26 00:11:52;;;;;;;19.83;13.43;;;;;;;11.15;100.00;99040.94;5041899;28;20047;-64
2023/10/26 00:14:17;;;;;;;22.75;14.70;;;;;;;11.12;100.00;99038.47;5054342;28;20033;-63
2023/10/26 00:16:43;;;;;;;19.27;12.80;;;;;;;11.07;100.00;99041.22;5055317;28;20047;-63
2023/10/26 00:19:08;;;;;;;20.35;13.27;;;;;;;11.05;100.00;99043.03;5058177;28;20572;-63
2023/10/26 00:21:33;;;;;;;20.92;12.25;;;;;;;11.02;100.00;99043.13;5058065;28;20056;-63
2023/10/26 00:23:59;;;;;;;20.38;13.27;;;;;;;11.01;100.00;99046.63;5042259;28;20119;-63
2023/10/26 00:26:24;;;;;;;23.30;12.75;;;;;;;11.03;100.00;99050.00;5058472;28;20066;-63
2023/10/26 00:28:50;;;;;;;16.52;11.98;;;;;;;11.01;100.00;99049.19;5057846;28;20036;-64
2023/10/26 00:31:15;;;;;;;22.90;12.32;;;;;;;10.99;100.00;99052.75;5060432;28;20819;-63
2023/10/26 00:33:40;;;;;;;15.77;11.20;;;;;;;11.00;100.00;99060.47;5053161;28;20120;-63
2023/10/26 00:36:06;;;;;;;17.10;11.40;;;;;;;10.99;100.00;99060.50;5045812;28;20052;-63
2023/10/26 00:38:32;;;;;;;16.98;11.90;;;;;;;10.99;100.00;99052.75;5036574;28;20041;-63
2023/10/26 00:40:57;;;;;;;16.10;11.77;;;;;;;10.98;100.00;99067.41;5019397;28;20021;-64
2023/10/26 00:43:24;;;;;;;17.55;11.30;;;;;;;10.99;100.00;99073.44;5036363;28;20094;-63
2023/10/26 00:45:53;;;;;;;14.95;10.48;;;;;;;11.00;100.00;99083.72;5047654;28;20048;-64
2023/10/26 00:48:20;;;;;;;16.38;10.80;;;;;;;11.01;100.00;99076.81;5054761;28;20040;-63
2023/10/26 00:50:47;;;;;;;17.13;11.27;;;;;;;11.02;100.00;99081.91;5051671;28;20108;-63
2023/10/26 00:53:14;;;;;;;15.27;11.10;;;;;;;11.03;100.00;99090.53;5033748;28;20029;-63
2023/10/26 00:55:40;;;;;;;17.85;10.23;;;;;;;11.03;100.00;99083.63;5036813;28;20901;-63
2023/10/26 00:58:07;;;;;;;14.25;10.57;;;;;;;11.05;100.00;99092.16;5007551;28;20068;-62
2023/10/26 01:00:32;;;;;;;14.00;10.38;;;;;;;11.04;100.00;99090.44;5033877;28;20040;-63
2023/10/26 01:02:58;;;;;;;12.57;9.27;;;;;;;11.04;100.00;99087.88;5034990;28;20037;-63
2023/10/26 01:05:23;;;;;;;13.32;10.10;;;;;;;11.05;100.00;99086.13;5037016;28;20028;-63
2023/10/26 01:07:49;;;;;;;14.55;10.30;;;;;;;11.05;100.00;99097.31;5034428;28;20038;-62
2023/10/26 01:10:14;;;;;;;15.60;10.98;;;;;;;11.05;100.00;99102.50;5029880;28;20056;-63
2023/10/26 01:12:40;;;;;;;15.27;9.85;;;;;;;11.03;100.00;99104.31;5035809;28;20053;-63
2023/10/26 01:15:06;;;;;;;14.32;10.23;;;;;;;11.02;100.00;99099.16;5032909;28;20037;-63
2023/10/26 01:17:34;;;;;;;12.95;9.93;;;;;;;11.01;100.00;99113.00;5039397;28;20569;-62
2023/10/26 01:19:59;;;;;;;13.82;10.63;;;;;;;11.01;100.00;99121.59;5051956;28;20040;-63
2023/10/26 01:22:32;;;;;;;14.50;10.23;;;;;;;11.03;100.00;99119.81;5061772;28;20043;-62
2023/10/26 01:24:57;;;;;;;15.75;10.43;;;;;;;11.07;100.00;99117.97;5054189;28;20178;-62
2023/10/26 01:27:23;;;;;;;13.88;10.63;;;;;;;11.05;100.00;99120.59;5045617;28;20594;-62
2023/10/26 01:29:48;;;;;;;13.60;10.27;;;;;;;11.05;100.00;99114.56;5059651;28;20680;-63
2023/10/26 01:32:13;;;;;;;13.13;9.85;;;;;;;11.07;100.00;99125.72;5055099;28;20044;-64
2023/10/26 01:34:39;;;;;;;16.17;10.27;;;;;;;11.06;100.00;99122.28;5052744;28;20024;-63
2023/10/26 01:37:05;;;;;;;13.95;10.05;;;;;;;11.07;100.00;99123.94;5056441;28;20048;-63
2023/10/26 01:39:31;;;;;;;12.65;9.32;;;;;;;11.08;100.00;99127.38;5054166;28;20553;-62
2023/10/26 01:41:57;;;;;;;15.35;9.95;;;;;;;11.08;100.00;99124.81;5055793;28;20044;-63
2023/10/26 01:44:22;;;;;;;14.70;10.00;;;;;;;11.12;100.00;99131.56;5056537;28;20266;-62
2023/10/26 01:46:47;;;;;;;14.00;10.38;;;;;;;11.09;100.00;99132.53;5057837;28;20132;-63
2023/10/26 01:49:13;;;;;;;15.13;9.40;;;;;;;11.09;100.00;99127.34;5056967;28;20064;-63
2023/10/26 01:51:38;;;;;;;19.52;10.07;;;;;;;11.08;100.00;99127.38;5062091;28;20071;-63
2023/10/26 01:54:04;;;;;;;15.70;10.02;;;;;;;11.07;100.00;99129.13;5063885;28;20067;-63
2023/10/26 01:56:30;;;;;;;13.88;9.48;;;;;;;11.04;100.00;99126.66;5058884;28;20044;-63
2023/10/26 01:58:56;;;;;;;15.38;10.25;;;;;;;11.03;100.00;99129.31;5058979;28;20107;-63
2023/10/26 02:01:22;;;;;;;14.48;9.80;;;;;;;11.02;100.00;99135.38;5059943;28;20039;-63
2023/10/26 02:03:47;;;;;;;15.55;9.85;;;;;;;11.03;100.00;99143.09;5066322;28;20118;-63
2023/10/26 02:06:14;;;;;;;16.45;10.73;;;;;;;11.03;100.00;99147.41;5063721;28;20052;-62
2023/10/26 02:08:40;;;;;;;15.50;9.98;;;;;;;11.03;100.00;99137.91;5061546;28;20083;-62
2023/10/26 02:11:06;;;;;;;13.82;10.10;;;;;;;11.05;100.00;99137.84;5044258;28;20040;-63
2023/10/26 02:13:32;;;;;;;20.40;11.57;;;;;;;11.05;100.00;99132.66;5061511;28;20032;-63
2023/10/26 02:15:59;;;;;;;15.45;10.75;;;;;;;11.04;100.00;99131.81;5062165;28;20036;-62
2023/10/26 02:18:24;;;;;;;17.52;11.45;;;;;;;11.05;100.00;99137.84;5062890;28;20040;-63
2023/10/26 02:20:50;;;;;;;16.13;11.13;;;;;;;11.03;100.00;99137.91;5066801;28;20127;-62
2023/10/26 02:23:15;;;;;;;16.35;11.55;;;;;;;11.03;100.00;99140.50;5063588;28;20036;-63
2023/10/26 02:25:40;;;;;;;15.55;11.32;;;;;;;11.02;100.00;99136.22;5063449;28;20457;-62
2023/10/26 02:28:06;;;;;;;19.05;11.77;;;;;;;11.03;100.00;99144.81;5064788;28;20490;-62
2023/10/26 02:30:31;;;;;;;18.52;11.70;;;;;;;11.03;100.00;99143.09;5060823;28;20106;-63
2023/10/26 02:32:56;;;;;;;16.42;11.40;;;;;;;11.02;100.00;99149.13;5058941;28;20155;-63
2023/10/26 02:35:22;;;;;;;20.42;12.00;;;;;;;11.01;100.00;99151.78;5063528;28;20503;-63
2023/10/26 02:37:47;;;;;;;17.50;12.00;;;;;;;11.01;100.00;99144.84;5065705;28;20035;-63
2023/10/26 02:40:13;;;;;;;16.48;12.32;;;;;;;11.02;100.00;99148.28;5028161;28;20511;-62
2023/10/26 02:42:41;;;;;;;18.83;12.90;;;;;;;11.01;100.00;99152.63;5052491;28;20044;-63
2023/10/26 02:45:08;;;;;;;19.50;13.18;;;;;;;11.02;100.00;99148.28;5051372;28;20076;-62
2023/10/26 02:47:33;;;;;;;20.52;12.68;;;;;;;11.04;100.00;99154.28;5044174;28;20174;-62
2023/10/26 02:49:59;;;;;;;20.17;13.27;;;;;;;11.03;100.00;99157.75;5062368;28;20120;-62
2023/10/26 02:52:24;;;;;;;17.30;12.13;;;;;;;11.04;100.00;99164.63;5041432;28;20793;-62
2023/10/26 02:54:49;;;;;;;22.25;14.00;;;;;;;11.02;100.00;99156.91;5057434;28;20072;-63
2023/10/26 02:57:15;;;;;;;17.30;12.43;;;;;;;11.02;100.00;99159.47;5061469;28;20052;-62
2023/10/26 02:59:40;;;;;;;19.52;13.57;;;;;;;11.04;100.00;99167.19;5060914;28;20129;-62
2023/10/26 03:02:06;;;;;;;21.05;13.50;;;;;;;11.04;100.00;99167.19;5057584;28;20102;-62
2023/10/26 03:04:34;;;;;;;19.88;13.63;;;;;;;11.02;100.00;99167.25;5057898;28;20086;-63
2023/10/26 03:06:59;;;;;;;21.42;14.45;;;;;;;11.01;100.00;99162.94;5059080;28;20477;-63
2023/10/26 03:09:25;;;;;;;21.05;14.07;;;;;;;10.98;100.00;99157.91;5062263;28;20069;-62
2023/10/26 03:11:51;;;;;;;24.20;14.80;;;;;;;10.98;100.00;99159.66;5058997;28;20044;-63
2023/10/26 03:14:18;;;;;;;24.80;15.15;;;;;;;10.97;100.00;99156.22;5067041;28;20055;-62
2023/10/26 03:16:43;;;;;;;23.92;15.60;;;;;;;10.95;100.00;99155.41;5062821;28;20216;-62
2023/10/26 03:19:09;;;;;;;23.10;14.95;;;;;;;10.97;100.00;99155.38;5060540;28;20048;-62
2023/10/26 03:21:34;;;;;;;22.60;15.38;;;;;;;10.98;100.00;99159.66;5058623;28;20752;-62
2023/10/26 03:24:00;;;;;;;21.90;15.07;;;;;;;10.97;100.00;99158.81;5059191;28;20956;-63
2023/10/26 03:26:26;;;;;;;26.80;16.85;;;;;;;10.96;100.00;99156.25;5054124;28;20041;-62
2023/10/26 03:28:52;;;;;;;25.00;16.88;;;;;;;10.95;100.00;99152.84;5050126;28;20718;-63
2023/10/26 03:31:18;;;;;;;22.67;15.43;;;;;;;10.97;100.00;99163.13;5055302;28;20040;-62
2023/10/26 03:33:43;;;;;;;24.08;15.85;;;;;;;10.97;100.00;99155.38;5058553;28;20865;-62
2023/10/26 03:36:17;;;;;;;24.05;15.90;;;;;;;10.97;100.00;99158.81;5057797;28;20032;-62
2023/10/26 03:38:42;;;;;;;24.88;15.93;;;;;;;10.98;100.00;99154.50;5054316;28;20047;-62
2023/10/26 03:41:08;;;;;;;24.52;16.17;;;;;;;10.99;100.00;99158.75;5057709;28;20048;-63
2023/10/26 03:43:33;;;;;;;23.52;16.20;;;;;;;10.98;100.00;99150.13;5056752;28;20123;-63
2023/10/26 03:45:59;;;;;;;24.75;16.17;;;;;;;10.99;100.00;99150.97;5055389;28;20039;-63
2023/10/26 03:48:24;;;;;;;24.10;16.00;;;;;;;10.98;100.00;99146.72;5056988;28;20131;-63
2023/10/26 03:50:50;;;;;;;22.77;15.35;;;;;;;10.99;100.00;99148.41;5055580;28;20052;-63
2023/10/26 03:53:15;;;;;;;22.67;15.35;;;;;;;11.00;100.00;99152.69;5052530;28;20111;-62
2023/10/26 03:55:40;;;;;;;22.13;15.02;;;;;;;10.98;100.00;99157.91;5052901;28;20115;-62
2023/10/26 03:58:06;;;;;;;21.50;14.90;;;;;;;10.97;100.00;99161.41;5055872;28;20033;-62
2023/10/26 04:00:31;;;;;;;25.38;16.05;;;;;;;10.97;100.00;99148.47;5057397;28;20040;-62
2023/10/26 04:02:56;;;;;;;22.67;15.25;;;;;;;10.98;100.00;99151.91;5036326;28;20119;-62
2023/10/26 04:05:22;;;;;;;19.10;14.13;;;;;;;10.98;100.00;99151.91;5052850;28;21092;-63
2023/10/26 04:07:47;;;;;;;20.95;14.80;;;;;;;10.96;100.00;99149.34;5052791;28;20025;-63
2023/10/26 04:10:12;;;;;;;21.13;14.30;;;;;;;10.98;100.00;99149.31;5050242;28;20051;-63
2023/10/26 04:12:38;;;;;;;18.58;12.60;;;;;;;10.99;100.00;99153.56;5038261;28;20425;-62
2023/10/26 04:15:04;;;;;;;16.65;12.80;;;;;;;10.98;100.00;99147.56;5050185;28;20123;-63
2023/10/26 04:17:29;;;;;;;18.85;11.95;;;;;;;10.99;100.00;99158.75;5052069;28;20503;-63
2023/10/26 04:19:55;;;;;;;16.42;12.05;;;;;;;10.98;100.00;99152.72;5054369;28;20037;-62
2023/10/26 04:22:20;;;;;;;17.13;12.68;;;;;;;11.00;100.00;99152.69;5049473;28;20029;-62
2023/10/26 04:24:45;;;;;;;18.40;12.77;;;;;;;11.00;100.00;99152.69;5055619;28;21303;-62
2023/10/26 04:27:11;;;;;;;16.88;11.48;;;;;;;10.99;100.00;99154.41;5053485;28;20058;-62
2023/10/26 04:29:36;;;;;;;17.30;12.13;;;;;;;11.00;100.00;99147.50;5034179;28;20075;-63
2023/10/26 04:32:01;;;;;;;15.85;11.57;;;;;;;11.00;100.00;99145.78;5051963;28;20048;-62
2023/10/26 04:34:27;;;;;;;18.27;13.13;;;;;;;10.99;100.00;99144.06;5057211;28;20043;-62
2023/10/26 04:36:52;;;;;;;19.38;13.50;;;;;;;10.99;100.00;99145.81;5064813;28;20037;-61
2023/10/26 04:39:18;;;;;;;20.35;13.55;;;;;;;10.99;100.00;99149.25;5063080;28;20537;-63
2023/10/26 04:41:43;;;;;;;21.48;15.00;;;;;;;10.99;100.00;99144.06;5057673;28;20711;-63
2023/10/26 04:44:09;;;;;;;18.80;14.45;;;;;;;10.98;100.00;99137.22;5056232;28;20040;-63
2023/10/26 04:46:34;;;;;;;19.13;13.18;;;;;;;10.98;100.00;99142.38;5054975;28;20040;-62
2023/10/26 04:49:00;;;;;;;23.13;14.15;;;;;;;10.98;100.00;99138.97;5055608;28;20152;-63
2023/10/26 04:51:25;;;;;;;18.17;13.80;;;;;;;10.97;100.00;99143.31;5052796;28;20648;-63
2023/10/26 04:53:51;;;;;;;20.17;14.15;;;;;;;10.97;100.00;99138.13;5056139;28;20060;-63
2023/10/26 04:56:16;;;;;;;20.77;14.63;;;;;;;10.97;100.00;99138.13;5049407;28;20041;-63
2023/10/26 04:58:43;;;;;;;21.50;14.30;;;;;;;10.97;100.00;99139.88;5051298;28;20855;-63
2023/10/26 05:01:09;;;;;;;19.45;13.75;;;;;;;10.96;100.00;99140.75;5053407;28;20745;-63
2023/10/26 05:03:34;;;;;;;19.95;14.63;;;;;;;10.94;100.00;99140.81;5053860;28;20132;-63
2023/10/26 05:06:00;;;;;;;19.40;14.07;;;;;;;10.94;100.00;99137.38;5050956;28;20041;-62
2023/10/26 05:08:25;;;;;;;20.75;14.45;;;;;;;10.92;100.00;99139.19;5053207;28;20157;-63
2023/10/26 05:10:50;;;;;;;20.65;14.38;;;;;;;10.93;100.00;99131.38;5049116;28;20036;-63
2023/10/26 05:13:16;;;;;;;21.13;14.68;;;;;;;10.94;100.00;99140.81;5049160;28;20041;-63
2023/10/26 05:15:44;;;;;;;21.42;16.02;;;;;;;10.94;100.00;99135.66;5052699;28;20956;-62
2023/10/26 05:18:09;;;;;;;22.20;15.43;;;;;;;10.92;100.00;99129.66;5049719;28;20040;-63
2023/10/26 05:20:35;;;;;;;24.23;16.48;;;;;;;10.92;100.00;99134.84;5051392;28;20507;-63
2023/10/26 05:23:02;;;;;;;24.92;15.35;;;;;;;10.92;100.00;99134.03;5051174;28;20036;-63
2023/10/26 05:25:27;;;;;;;22.35;16.40;;;;;;;10.91;100.00;99132.31;5056159;28;20151;-63
2023/10/26 05:27:53;;;;;;;22.63;16.38;;;;;;;10.90;100.00;99134.06;5048895;28;20037;-62
2023/10/26 05:30:18;;;;;;;26.67;17.38;;;;;;;10.90;100.00;99133.22;5056224;28;20036;-62
2023/10/26 05:32:44;;;;;;;24.27;17.52;;;;;;;10.90;100.00;99134.06;5052835;28;20928;-62
2023/10/26 05:35:09;;;;;;;21.98;16.63;;;;;;;10.90;100.00;99130.63;5055598;28;20063;-63
2023/10/26 05:37:36;;;;;;;26.65;17.35;;;;;;;10.91;100.00;99127.16;5052324;28;20114;-62
2023/10/26 05:40:04;;;;;;;28.52;19.00;;;;;;;10.91;100.00;99133.19;5054197;28;20040;-63
2023/10/26 05:42:29;;;;;;;26.80;18.30;;;;;;;10.90;100.00;99128.91;5050806;28;20127;-62
2023/10/26 05:44:56;;;;;;;28.85;19.77;;;;;;;10.91;100.00;99134.91;5055058;28;20044;-63
2023/10/26 05:47:21;;;;;;;28.50;20.45;;;;;;;10.89;100.00;99140.13;5056672;28;20546;-62
2023/10/26 05:49:47;;;;;;;28.23;19.77;;;;;;;10.89;100.00;99137.53;5054300;28;20021;-63
2023/10/26 05:52:12;;;;;;;30.05;19.48;;;;;;;10.88;100.00;99129.84;5052463;28;20037;-62
2023/10/26 05:54:37;;;;;;;31.17;20.67;;;;;;;10.89;100.00;99128.97;5042125;28;20159;-63
2023/10/26 05:57:03;;;;;;;29.60;20.13;;;;;;;10.88;100.00;99127.25;5046983;28;20114;-62
2023/10/26 05:59:28;;;;;;;29.10;19.23;;;;;;;10.88;100.00;99124.69;5032366;28;20074;-63
2023/10/26 06:01:54;;;;;;;28.00;19.30;;;;;;;10.88;100.00;99116.94;5030392;28;20033;-63
2023/10/26 06:04:19;;;;;;;30.33;20.60;;;;;;;10.87;100.00;99121.25;5052852;28;20040;-63
2023/10/26 06:06:45;;;;;;;32.25;20.35;;;;;;;10.86;100.00;99119.56;5049480;28;20064;-63
2023/10/26 06:09:10;;;;;;;27.83;18.98;;;;;;;10.85;100.00;99127.38;5050137;28;20064;-64
2023/10/26 06:11:37;;;;;;;34.60;22.10;;;;;;;10.84;100.00;99134.28;5049500;28;20122;-63
2023/10/26 06:14:03;;;;;;;32.30;21.38;;;;;;;10.85;100.00;99135.13;5058071;28;20510;-63
2023/10/26 06:16:28;;;;;;;33.58;21.83;;;;;;;10.86;100.00;99135.06;5022171;28;20468;-62
2023/10/26 06:18:54;;;;;;;32.40;21.33;;;;;;;10.87;100.00;99133.31;5052977;28;20041;-63
2023/10/26 06:21:19;;;;;;;36.03;22.17;;;;;;;10.86;100.00;99137.66;5053152;28;20036;-63
2023/10/26 06:23:45;;;;;;;32.60;21.42;;;;;;;10.88;100.00;99146.22;5048102;28;20037;-63
2023/10/26 06:26:11;;;;;;;34.05;21.30;;;;;;;10.88;100.00;99135.03;5052014;28;20032;-63
2023/10/26 06:28:36;;;;;;;33.85;22.10;;;;;;;10.89;100.00;99134.94;5051773;28;20039;-63
2023/10/26 06:31:14;;;;;;;35.08;22.90;;;;;;;10.90;100.00;99135.81;5032863;28;20041;-63
2023/10/26 06:33:40;;;;;;;35.17;23.55;;;;;;;10.90;100.00;99130.63;5054122;28;20119;-63
2023/10/26 06:36:06;;;;;;;36.00;21.92;;;;;;;10.90;100.00;99128.91;5053525;28;20050;-68
2023/10/26 06:38:32;;;;;;;36.78;22.45;;;;;;;10.88;100.00;99135.88;5055713;28;20037;-63
2023/10/26 06:40:57;;;;;;;34.72;22.85;;;;;;;10.89;100.00;99137.53;5057958;28;20377;-63
2023/10/26 06:43:24;;;;;;;37.22;22.05;;;;;;;10.90;100.00;99131.47;5057040;28;20037;-63
2023/10/26 06:45:50;;;;;;;33.53;22.55;;;;;;;10.93;100.00;99139.13;5052877;28;20037;-63
2023/10/26 06:48:16;;;;;;;34.63;21.95;;;;;;;10.95;100.00;99142.50;5058101;28;20036;-63
2023/10/26 06:50:41;;;;;;;34.08;22.42;;;;;;;10.98;100.00;99146.72;5056892;28;20040;-63
2023/10/26 06:53:06;;;;;;;34.35;22.60;;;;;;;10.98;100.00;99144.16;5056197;28;20036;-63
2023/10/26 06:55:33;;;;;;;32.70;22.08;;;;;;;10.99;100.00;99148.41;5034151;28;20032;-63
2023/10/26 06:57:59;;;;;;;35.10;21.98;;;;;;;11.00;100.00;99150.09;5057484;28;20115;-63
2023/10/26 07:00:24;;;;;;;31.23;21.77;;;;;;;11.02;100.00;99151.72;5058863;28;20047;-63
2023/10/26 07:02:49;;;;;;;32.75;21.48;;;;;;;11.02;100.00;99151.72;5056330;28;20040;-63
2023/10/26 07:05:15;;;;;;;31.08;21.20;;;;;;;11.06;100.00;99136.94;5061285;28;20043;-63
2023/10/26 07:07:40;;;;;;;33.00;20.63;;;;;;;11.07;100.00;99139.47;5056942;28;20095;-63
2023/10/26 07:10:05;;;;;;;33.45;22.67;;;;;;;11.08;100.00;99142.91;5051925;28;20222;-63
2023/10/26 07:12:31;;;;;;;37.55;23.30;;;;;;;11.09;100.00;99137.69;5034638;28;20068;-63
2023/10/26 07:14:57;;;;;;;34.20;22.42;;;;;;;11.12;100.00;99136.72;5054974;28;20105;-63
2023/10/26 07:17:23;;;;;;;38.22;22.30;;;;;;;11.08;100.00;99138.56;5053456;28;20054;-63
2023/10/26 07:19:50;;;;;;;33.92;22.48;;;;;;;11.12;100.00;99137.56;5056676;28;20355;-63
2023/10/26 07:22:15;;;;;;;32.03;20.85;;;;;;;11.15;100.00;99140.06;5054864;28;20086;-63
2023/10/26 07:24:41;;;;;;;34.63;21.80;;;;;;;11.15;100.00;99137.47;5054843;28;20036;-63
2023/10/26 07:27:06;;;;;;;31.92;20.88;;;;;;;11.16;100.00;99133.13;5053634;28;20089;-63
2023/10/26 07:29:32;;;;;;;34.00;21.23;;;;;;;11.15;100.00;99134.03;5055535;28;20040;-63
2023/10/26 07:31:57;;;;;;;34.45;21.63;;;;;;;11.16;100.00;99127.94;5051850;28;20109;-63
2023/10/26 07:34:23;;;;;;;33.50;21.33;;;;;;;11.19;100.00;99125.25;5057312;28;20076;-63
2023/10/26 07:36:48;;;;;;;33.38;21.58;;;;;;;11.18;100.00;99118.41;5035447;28;20076;-63
2023/10/26 07:39:14;;;;;;;33.85;22.55;;;;;;;11.24;100.00;99123.34;5036869;28;20052;-67
2023/10/26 07:41:40;;;;;;;33.22;20.75;;;;;;;11.26;100.00;99114.63;5055421;28;20143;-67
2023/10/26 07:44:05;;;;;;;28.55;19.90;;;;;;;11.29;100.00;99111.09;5053344;28;20028;-67
2023/10/26 07:46:31;;;;;;;31.60;21.70;;;;;;;11.32;100.00;99113.56;5056536;28;20645;-67
2023/10/26 07:48:56;;;;;;;33.75;22.15;;;;;;;11.33;100.00;99108.34;5055016;28;20048;-68
2023/10/26 07:51:21;;;;;;;32.22;22.00;;;;;;;11.30;100.00;99105.88;5055670;28;20112;-64
2023/10/26 07:53:47;;;;;;;35.22;22.20;;;;;;;11.33;100.00;99116.09;5034811;28;20075;-64
2023/10/26 07:56:12;;;;;;;32.95;22.02;;;;;;;11.39;100.00;99117.59;5054676;28;20030;-64
2023/10/26 07:58:38;;;;;;;35.63;23.33;;;;;;;11.37;100.00;99108.22;5053023;28;20021;-64
2023/10/26 08:01:09;;;;;;;32.75;22.17;;;;;;;11.39;100.00;99104.66;5050908;28;20838;-64
2023/10/26 08:03:35;;;;;;;34.72;22.02;;;;;;;11.48;100.00;99106.94;5055368;28;20103;-68
2023/10/26 08:06:01;;;;;;;36.65;22.45;;;;;;;11.57;100.00;99105.75;5053244;28;20550;-65
2023/10/26 08:08:27;;;;;;;28.40;19.15;;;;;;;11.59;100.00;99120.31;5052935;28;20169;-65
2023/10/26 08:10:53;;;;;;;30.80;19.30;;;;;;;11.64;100.00;99113.19;5052559;28;20036;-65
2023/10/26 08:13:18;;;;;;;29.80;20.05;;;;;;;11.67;100.00;99118.25;5055886;28;20064;-64
2023/10/26 08:15:44;;;;;;;28.38;19.30;;;;;;;11.67;100.00;99118.25;5054913;28;20417;-64
2023/10/26 08:18:11;;;;;;;26.33;17.70;;;;;;;11.70;100.00;99112.09;5040428;28;20563;-65
2023/10/26 08:20:37;;;;;;;28.58;20.10;;;;;;;11.73;100.00;99114.56;5056734;28;20510;-64
2023/10/26 08:23:03;;;;;;;28.17;18.35;;;;;;;11.71;100.00;99106.88;5054858;28;20124;-65
2023/10/26 08:25:28;;;;;;;30.20;18.85;;;;;;;11.71;100.00;99113.81;5057390;28;20044;-65
2023/10/26 08:27:54;;;;;;;28.85;19.65;;;;;;;11.68;100.00;99103.56;5055768;28;20143;-64
2023/10/26 08:30:20;;;;;;;30.75;20.05;;;;;;;11.74;100.00;99109.34;5055401;28;20067;-64
2023/10/26 08:32:48;;;;;;;29.73;19.00;;;;;;;11.80;100.00;99119.47;5054378;28;20063;-64
2023/10/26 08:35:13;;;;;;;26.38;17.88;;;;;;;11.84;100.00;99133.13;5054262;28;20773;-62
2023/10/26 08:37:39;;;;;;;29.02;18.95;;;;;;;11.92;100.00;99135.41;5058259;28;20035;-62
2023/10/26 08:40:11;;;;;;;25.20;17.90;;;;;;;12.01;100.00;99135.03;5060632;28;20025;-64
2023/10/26 08:42:43;;;;;;;23.58;15.95;;;;;;;12.15;100.00;99135.31;5060720;28;20052;-64
2023/10/26 08:45:12;;;;;;;24.85;16.33;;;;;;;12.21;100.00;99125.56;5059839;28;20834;-64
2023/10/26 08:47:40;;;;;;;23.88;16.13;;;;;;;12.26;100.00;99123.63;5056174;28;20507;-64
2023/10/26 08:50:07;;;;;;;19.58;14.90;;;;;;;12.31;100.00;99128.63;5061025;28;20494;-63
2023/10/26 08:52:33;;;;;;;22.45;16.10;;;;;;;12.30;100.00;99135.56;5053977;28;20039;-64
2023/10/26 08:54:58;;;;;;;19.50;14.60;;;;;;;12.33;100.00;99144.94;5054120;28;20032;-64
2023/10/26 08:57:24;;;;;;;24.23;16.48;;;;;;;12.35;100.00;99146.56;5053639;28;20036;-63
2023/10/26 08:59:49;;;;;;;22.65;14.70;;;;;;;12.34;100.00;99147.47;5053078;28;20555;-63
2023/10/26 09:02:15;;;;;;;23.73;15.45;;;;;;;12.33;100.00;99150.97;5057071;28;20044;-64
2023/10/26 09:05:02;;;;;;;18.23;13.77;;;;;;;12.41;100.00;99150.63;5053171;28;20038;-63
2023/10/26 09:07:28;;;;;;;17.85;14.02;;;;;;;12.50;100.00;99160.63;5039981;28;20734;-64
2023/10/26 09:09:53;;;;;;;18.13;13.63;;;;;;;12.56;100.00;99169.88;5054721;28;20044;-64
2023/10/26 09:12:19;;;;;;;20.55;14.40;;;;;;;12.60;100.00;99174.03;5057041;28;20511;-63
2023/10/26 09:15:17;;;;;;;18.52;13.25;;;;;;;12.61;100.00;99163.63;5049609;28;20041;-63
2023/10/26 09:17:42;;;;;;;13.23;9.88;;;;;;;12.70;99.99;99155.44;5017849;28;20562;-63
2023/10/26 09:20:17;;;;;;;12.88;9.77;;;;;;;12.84;100.00;99155.72;5058973;28;20066;-63
2023/10/26 09:22:42;;;;;;;11.23;8.38;;;;;;;12.98;99.48;99155.09;5041080;28;20984;-66
2023/10/26 09:25:08;;;;;;;9.43;7.65;;;;;;;13.09;97.49;99152.91;5055612;28;20033;-67
2023/10/26 09:27:34;;;;;;;11.85;8.75;;;;;;;13.11;94.53;99135.53;5050182;28;20037;-67
2023/10/26 09:29:59;;;;;;;13.00;8.15;;;;;;;13.14;93.28;99138.00;5040421;28;20067;-67
2023/10/26 09:32:35;;;;;;;9.65;8.48;;;;;;;13.26;95.46;99150.44;5051866;28;20029;-67
2023/10/26 09:35:01;;;;;;;10.52;8.65;;;;;;;13.35;95.95;99150.00;5052828;28;20060;-68
2023/10/26 09:37:27;;;;;;;11.90;8.57;;;;;;;13.39;93.97;99145.50;5035969;28;20132;-67
2023/10/26 09:39:53;;;;;;;12.15;9.45;;;;;;;13.40;94.21;99142.00;5032237;28;20040;-67
2023/10/26 09:42:19;;;;;;;10.65;8.63;;;;;;;13.45;94.70;99153.84;5033872;28;20062;-68
2023/10/26 09:44:45;;;;;;;7.93;7.13;;;;;;;13.47;93.57;99146.84;5031970;28;20043;-68
2023/10/26 09:47:11;;;;;;;11.68;7.93;;;;;;;13.53;92.99;99138.75;5030739;28;20029;-67
2023/10/26 09:49:37;;;;;;;10.10;6.90;;;;;;;13.57;93.16;99140.31;5033394;28;20688;-68
2023/10/26 09:52:03;;;;;;;8.80;7.38;;;;;;;13.66;91.96;99128.66;5034868;28;20060;-69
2023/10/26 09:54:34;;;;;;;11.73;7.82;;;;;;;13.66;90.87;99120.03;5035965;28;20041;-68
2023/10/26 09:57:10;;;;;;;10.60;7.50;;;;;;;13.57;89.09;99114.34;5035444;28;20102;-67
2023/10/26 09:59:36;;;;;;;9.00;6.95;;;;;;;13.69;90.91;99125.06;5031566;28;20502;-68
2023/10/26 10:02:15;;;;;;;10.10;6.97;;;;;;;13.76;89.69;99109.16;5037344;28;20476;-68
2023/10/26 10:04:41;;;;;;;9.00;7.25;;;;;;;13.67;88.43;99106.97;5030477;28;20318;-67
2023/10/26 10:07:06;;;;;;;9.82;7.45;;;;;;;13.61;88.34;99103.84;5052707;28;20568;-63
2023/10/26 10:09:32;;;;;;;9.32;7.38;;;;;;;13.48;88.07;99096.63;5054968;28;20045;-64
2023/10/26 10:12:03;;;;;;;10.75;7.80;;;;;;;13.41;87.42;99091.78;5062128;28;20068;-64
2023/10/26 10:14:58;;;;;;;11.20;9.00;;;;;;;13.15;85.58;99058.44;5064205;28;20730;-64
2023/10/26 10:17:43;;;;;;;11.27;8.02;;;;;;;13.21;88.64;99094.44;5035638;28;21240;-64
2023/10/26 10:20:30;;;;;;;11.52;7.32;;;;;;;13.19;87.23;99076.34;5059485;28;20096;-64
2023/10/26 10:22:58;;;;;;;10.85;8.88;;;;;;;13.19;89.45;99104.91;5061305;28;20522;-63
2023/10/26 10:25:49;;;;;;;12.90;9.50;;;;;;;13.20;91.65;99123.91;5043135;28;20583;-63
2023/10/26 10:28:15;;;;;;;15.88;11.68;;;;;;;13.22;93.12;99122.06;5059445;28;20135;-64
2023/10/26 10:31:01;;;;;;;13.98;10.52;;;;;;;13.35;93.72;99111.09;5063307;28;20124;-64
2023/10/26 10:33:28;;;;;;;13.10;10.13;;;;;;;13.34;90.92;99093.81;5058151;28;20160;-63
2023/10/26 10:36:01;;;;;;;12.80;10.23;;;;;;;13.30;91.16;99089.69;5061200;28;20558;-65
2023/10/26 10:38:28;;;;;;;14.73;10.25;;;;;;;13.32;89.66;99071.47;5058010;28;20140;-64
2023/10/26 10:40:54;;;;;;;15.82;9.13;;;;;;;13.24;90.84;99091.69;5056039;28;20119;-61
2023/10/26 10:43:45;;;;;;;11.73;8.95;;;;;;;13.21;88.03;99071.09;5057511;28;20028;-62
2023/10/26 10:46:26;;;;;;;10.73;8.48;;;;;;;13.17;85.56;99035.84;5053542;28;20044;-62
2023/10/26 10:48:57;;;;;;;9.52;7.70;;;;;;;13.21;85.56;99058.13;5050358;28;20089;-62
2023/10/26 10:51:28;;;;;;;11.38;8.93;;;;;;;13.25;88.10;99075.22;5055277;28;20036;-63
2023/10/26 10:53:53;;;;;;;11.23;8.98;;;;;;;13.28;89.35;99075.94;5052028;28;20087;-63
2023/10/26 10:56:18;;;;;;;10.25;8.43;;;;;;;13.32;88.56;99069.72;5061268;28;20032;-64
2023/10/26 10:58:44;;;;;;;11.90;7.88;;;;;;;13.53;89.57;99079.06;5064426;28;20052;-63
2023/10/26 11:01:09;;;;;;;12.90;8.30;;;;;;;13.66;88.29;99060.31;5064205;28;20476;-63
2023/10/26 11:03:35;;;;;;;9.68;7.07;;;;;;;13.82;86.15;99037.88;5058226;28;20044;-64
2023/10/26 11:06:00;;;;;;;8.25;6.60;;;;;;;13.74;84.25;99021.84;5050815;28;20976;-63
2023/10/26 11:08:26;;;;;;;8.70;6.78;;;;;;;13.74;83.50;99011.47;5056683;28;20048;-63
2023/10/26 11:10:51;;;;;;;8.93;6.65;;;;;;;13.89;83.94;99021.91;5042583;28;20041;-64